Aviation Digital Data Service (ADDS)

Output produced by METARs form (1237 UTC 19 January 2019)
found at http://www.aviationweather.gov/metar/data/
 
Forecast for: WMKA (S ABDUL HALIM , MY)
Text: TAF WMKA 191100Z 1912/2012 06005KT 9999 FEW030 SCT140 BKN280
Forecast period: 1200 UTC 19 January 2019 to 1200 UTC 20 January 2019
Forecast type: FROM: standard forecast or significant change
Winds: from the ENE (60 degrees) at 6 MPH (5 knots; 2.6 m/s)
Visibility: 6 or more miles 10+ km)
Ceiling: 28000 feet AGL
Clouds: few clouds at 3000 feet AGL
scattered clouds at 14000 feet AGL
broken clouds at 28000 feet AGL
Weather: no significant weather forecast for this period